Aviation Digital Data Service (ADDS)

Output produced by TAFs form (2213 UTC 27 August 2016)
found at http://www.aviationweather.gov/adds/tafs/
 
KMRB 271726Z 2718/2818 11006KT P6SM SKC 
     FM280800 00000KT 6SM BR SKC 
     FM280900 00000KT 3SM BR SKC 
     FM281300 VRB03KT P6SM SKC